createdAt,value
2018-11-03T00:01:14.153Z,99.90
2018-11-03T00:03:42.246Z,99.90
2018-11-03T00:06:10.379Z,99.90
2018-11-03T00:08:38.461Z,99.90
2018-11-03T00:11:06.618Z,99.90
2018-11-03T00:13:34.714Z,99.90
2018-11-03T00:16:02.917Z,99.90
2018-11-03T00:18:31.004Z,99.90
2018-11-03T00:20:59.308Z,99.90
2018-11-03T00:23:28.129Z,99.90
2018-11-03T00:25:56.329Z,99.90
2018-11-03T00:28:24.420Z,99.90
2018-11-03T00:30:52.681Z,99.90
2018-11-03T00:33:20.775Z,99.90
2018-11-03T00:35:48.885Z,99.90
2018-11-03T00:38:16.980Z,99.90
2018-11-03T00:40:45.188Z,99.90
2018-11-03T00:43:13.298Z,99.90
2018-11-03T00:45:41.549Z,99.90
2018-11-03T00:48:09.633Z,99.90
2018-11-03T00:50:37.732Z,99.90
2018-11-03T00:53:05.879Z,99.90
2018-11-03T00:55:34.082Z,99.90
2018-11-03T00:58:02.166Z,99.90
2018-11-03T01:00:30.336Z,99.90
2018-11-03T01:02:58.481Z,99.90
2018-11-03T01:05:26.636Z,99.90
2018-11-03T01:07:54.730Z,99.90
2018-11-03T01:10:22.912Z,99.90
2018-11-03T01:12:50.993Z,99.90
2018-11-03T01:15:19.064Z,99.90
2018-11-03T01:17:47.204Z,99.90
2018-11-03T01:20:16.416Z,99.90
2018-11-03T01:22:44.729Z,99.90
2018-11-03T01:25:12.826Z,99.90
2018-11-03T01:27:40.936Z,99.90
2018-11-03T01:30:12.095Z,99.90
2018-11-03T01:32:40.403Z,99.90
2018-11-03T01:35:08.907Z,99.90
2018-11-03T01:37:37.435Z,99.90
2018-11-03T01:40:06.278Z,99.90
2018-11-03T01:42:34.381Z,99.90
2018-11-03T01:45:02.474Z,99.90
2018-11-03T01:47:30.592Z,99.90
2018-11-03T01:49:58.777Z,99.90
2018-11-03T01:52:26.869Z,99.90
2018-11-03T01:54:54.970Z,99.90
2018-11-03T01:57:23.113Z,99.90
2018-11-03T01:59:51.308Z,99.90
2018-11-03T02:02:19.489Z,99.90
2018-11-03T02:04:47.558Z,99.90
2018-11-03T02:07:15.781Z,99.90
2018-11-03T02:09:43.862Z,99.90
2018-11-03T02:12:11.946Z,99.90
2018-11-03T02:14:40.089Z,99.90
2018-11-03T02:17:08.295Z,99.90
2018-11-03T02:19:36.639Z,99.90
2018-11-03T02:22:04.963Z,99.90
2018-11-03T02:24:33.045Z,99.90
2018-11-03T02:27:01.218Z,99.90
2018-11-03T02:29:29.301Z,99.90
2018-11-03T02:31:57.494Z,99.90
2018-11-03T02:34:25.597Z,99.90
2018-11-03T02:36:53.842Z,99.90
2018-11-03T02:39:21.942Z,99.90
2018-11-03T02:41:50.085Z,99.90
2018-11-03T02:44:18.259Z,99.90
2018-11-03T02:46:46.489Z,99.90
2018-11-03T02:49:14.586Z,99.90
2018-11-03T02:51:42.849Z,99.90
2018-11-03T02:54:10.978Z,99.90
2018-11-03T02:56:39.086Z,99.90
2018-11-03T02:59:07.197Z,99.90
2018-11-03T03:01:35.492Z,99.90
2018-11-03T03:04:03.592Z,99.90
2018-11-03T03:06:31.762Z,99.90
2018-11-03T03:08:59.845Z,99.90
2018-11-03T03:11:27.936Z,99.90
2018-11-03T03:13:56.287Z,99.90
2018-11-03T03:16:24.373Z,99.90
2018-11-03T03:18:52.503Z,99.90
2018-11-03T03:21:20.608Z,99.90
2018-11-03T03:23:48.712Z,99.90
2018-11-03T03:26:16.837Z,99.90
2018-11-03T03:28:45.053Z,99.90
2018-11-03T03:31:13.124Z,99.90
2018-11-03T03:33:41.511Z,99.90
2018-11-03T03:36:09.677Z,99.90
2018-11-03T03:38:37.802Z,99.90
2018-11-03T03:41:06.172Z,99.90
2018-11-03T03:43:34.418Z,99.90
2018-11-03T03:46:02.521Z,99.90
2018-11-03T03:48:30.785Z,99.90
2018-11-03T03:50:58.917Z,99.90
2018-11-03T03:53:27.059Z,99.90
2018-11-03T03:55:55.206Z,99.90
2018-11-03T03:58:23.483Z,99.90
2018-11-03T04:00:51.641Z,99.90
2018-11-03T04:03:19.840Z,99.90
2018-11-03T04:05:54.626Z,99.90
2018-11-03T04:08:22.861Z,99.90
2018-11-03T04:10:50.997Z,99.90
2018-11-03T04:13:19.199Z,99.90
2018-11-03T04:15:47.319Z,99.90
2018-11-03T04:18:15.438Z,99.90
2018-11-03T04:20:43.582Z,99.90
2018-11-03T04:23:11.916Z,99.90
2018-11-03T04:25:40.127Z,99.90
2018-11-03T04:28:08.261Z,99.90
2018-11-03T04:30:36.387Z,99.90
2018-11-03T04:33:04.505Z,99.90
2018-11-03T04:35:32.597Z,99.90
2018-11-03T04:38:00.702Z,99.90
2018-11-03T04:40:28.868Z,99.90
2018-11-03T04:42:56.970Z,99.90
2018-11-03T04:45:25.230Z,99.90
2018-11-03T04:47:53.214Z,99.90
2018-11-03T04:50:21.369Z,99.90
2018-11-03T04:52:49.473Z,99.90
2018-11-03T04:55:17.778Z,99.90
2018-11-03T04:57:45.786Z,99.90
2018-11-03T05:00:13.910Z,99.90
2018-11-03T05:02:42.074Z,99.90
2018-11-03T05:05:10.273Z,99.90
2018-11-03T05:07:38.397Z,99.90
2018-11-03T05:10:07.409Z,99.90
2018-11-03T05:12:35.607Z,99.90
2018-11-03T05:15:03.694Z,99.90
2018-11-03T05:17:31.853Z,99.90
2018-11-03T05:20:00.071Z,99.90
2018-11-03T05:22:28.181Z,99.90
2018-11-03T05:24:56.325Z,99.90
2018-11-03T05:27:24.453Z,99.90
2018-11-03T05:29:52.587Z,99.90
2018-11-03T05:32:20.718Z,99.90
2018-11-03T05:34:48.877Z,99.90
2018-11-03T05:37:17.009Z,99.90
2018-11-03T05:39:45.158Z,99.90
2018-11-03T05:42:13.260Z,99.90
2018-11-03T05:44:41.446Z,99.90
2018-11-03T05:47:09.596Z,99.90
2018-11-03T05:49:37.712Z,99.90
2018-11-03T05:52:05.893Z,99.90
2018-11-03T05:54:33.985Z,99.90
2018-11-03T05:57:02.125Z,99.90
2018-11-03T05:59:30.254Z,99.90
2018-11-03T06:01:58.435Z,99.90
2018-11-03T06:04:26.556Z,99.90
2018-11-03T06:06:54.826Z,99.90
2018-11-03T06:09:23.066Z,99.90
2018-11-03T06:11:51.201Z,99.90
2018-11-03T06:14:19.314Z,99.90
2018-11-03T06:16:47.652Z,99.90
2018-11-03T06:19:15.814Z,99.90
2018-11-03T06:21:44.031Z,99.90
2018-11-03T06:24:12.140Z,99.90
2018-11-03T06:26:40.300Z,99.90
2018-11-03T06:29:08.450Z,99.90
2018-11-03T06:31:36.829Z,99.90
2018-11-03T06:34:05.055Z,99.90
2018-11-03T06:36:33.327Z,99.90
2018-11-03T06:39:01.503Z,99.90
2018-11-03T06:41:29.869Z,99.90
2018-11-03T06:43:58.074Z,99.90
2018-11-03T06:46:26.241Z,99.90
2018-11-03T06:48:58.610Z,99.90
2018-11-03T06:51:26.812Z,99.90
2018-11-03T06:53:54.988Z,99.90
2018-11-03T06:56:23.141Z,99.90
2018-11-03T06:58:51.260Z,99.90
2018-11-03T07:01:19.440Z,99.90
2018-11-03T07:03:47.558Z,99.90
2018-11-03T07:06:15.668Z,99.90
2018-11-03T07:08:43.917Z,99.90
2018-11-03T07:11:12.131Z,99.90
2018-11-03T07:13:40.245Z,99.90
2018-11-03T07:16:08.768Z,99.90
2018-11-03T07:18:36.883Z,99.90
2018-11-03T07:21:05.202Z,99.90
2018-11-03T07:23:33.320Z,99.90
2018-11-03T07:26:01.518Z,99.90
2018-11-03T07:28:29.714Z,99.90
2018-11-03T07:30:57.925Z,99.90
2018-11-03T07:33:26.021Z,99.90
2018-11-03T07:35:54.141Z,99.90
2018-11-03T07:38:22.357Z,99.90
2018-11-03T07:40:50.596Z,99.90
2018-11-03T07:43:18.668Z,99.90
2018-11-03T07:45:46.866Z,99.90
2018-11-03T07:48:15.186Z,99.90
2018-11-03T07:50:43.325Z,99.90
2018-11-03T07:53:11.525Z,99.90
2018-11-03T07:55:39.680Z,99.90
2018-11-03T07:58:07.997Z,99.90
2018-11-03T08:00:36.215Z,99.90
2018-11-03T08:03:04.269Z,99.90
2018-11-03T08:05:32.360Z,99.90
2018-11-03T08:08:00.526Z,99.90
2018-11-03T08:13:08.825Z,99.90
2018-11-03T08:15:37.095Z,99.90
2018-11-03T08:18:05.547Z,99.90
2018-11-03T08:20:33.803Z,99.90
2018-11-03T08:23:02.040Z,99.90
2018-11-03T08:25:30.269Z,99.90
2018-11-03T08:27:58.680Z,99.90
2018-11-03T08:30:27.018Z,99.90
2018-11-03T08:32:55.326Z,99.90
2018-11-03T08:35:23.523Z,99.90
2018-11-03T08:37:51.738Z,99.90
2018-11-03T08:40:19.947Z,99.90
2018-11-03T08:42:48.424Z,99.90
2018-11-03T08:45:16.660Z,99.90
2018-11-03T08:47:44.890Z,99.90
2018-11-03T08:50:13.442Z,99.90
2018-11-03T08:52:41.853Z,99.90
2018-11-03T08:55:11.113Z,99.90
2018-11-03T08:57:39.298Z,99.90
2018-11-03T09:00:09.911Z,99.90
2018-11-03T09:02:37.985Z,99.90
2018-11-03T09:05:06.189Z,99.90
2018-11-03T09:07:34.697Z,99.90
2018-11-03T09:10:02.874Z,99.90
2018-11-03T09:12:31.002Z,99.90
2018-11-03T09:14:59.203Z,99.90
2018-11-03T09:17:27.269Z,99.90
2018-11-03T09:19:55.381Z,99.90
2018-11-03T09:22:23.589Z,99.90
2018-11-03T09:24:51.718Z,99.90
2018-11-03T09:27:19.910Z,99.90
2018-11-03T09:29:48.059Z,99.90
2018-11-03T09:32:16.199Z,99.90
2018-11-03T09:34:44.302Z,99.90
2018-11-03T09:37:12.479Z,99.90
2018-11-03T09:39:40.589Z,99.90
2018-11-03T09:42:08.821Z,99.90
2018-11-03T09:44:36.893Z,99.90
2018-11-03T09:47:05.150Z,99.90
2018-11-03T09:49:34.112Z,99.90
2018-11-03T09:52:03.180Z,99.90
2018-11-03T09:54:31.264Z,99.90
2018-11-03T09:56:59.397Z,99.90
2018-11-03T09:59:27.494Z,99.70
2018-11-03T10:01:55.653Z,99.90
2018-11-03T10:04:23.829Z,98.70
2018-11-03T10:06:51.933Z,97.20
2018-11-03T10:09:20.154Z,94.90
2018-11-03T10:11:48.348Z,95.20
2018-11-03T10:14:16.497Z,94.50
2018-11-03T10:16:44.596Z,93.30
2018-11-03T10:19:12.805Z,91.80
2018-11-03T10:21:40.960Z,90.00
2018-11-03T10:24:09.294Z,87.70
2018-11-03T10:26:37.517Z,86.30
2018-11-03T10:29:06.097Z,86.50
2018-11-03T10:31:34.228Z,88.60
2018-11-03T10:34:02.591Z,87.50
2018-11-03T10:36:30.741Z,84.70
2018-11-03T10:38:59.008Z,88.30
2018-11-03T10:41:27.209Z,85.40
2018-11-03T10:43:55.347Z,83.90
2018-11-03T10:46:23.618Z,85.70
2018-11-03T10:48:51.727Z,86.60
2018-11-03T10:51:19.865Z,89.30
2018-11-03T10:53:48.137Z,86.80
2018-11-03T10:56:16.205Z,87.50
2018-11-03T10:58:44.365Z,90.10
2018-11-03T11:01:17.834Z,90.20
2018-11-03T11:03:51.497Z,90.50
2018-11-03T11:06:24.977Z,89.20
2018-11-03T11:08:58.609Z,90.70
2018-11-03T11:11:32.157Z,92.00
2018-11-03T11:14:00.416Z,91.70
2018-11-03T11:16:28.670Z,92.20
2018-11-03T11:18:56.966Z,93.30
2018-11-03T11:21:25.139Z,94.90
2018-11-03T11:23:53.607Z,95.60
2018-11-03T11:26:21.764Z,96.60
2018-11-03T11:28:50.094Z,96.60
2018-11-03T11:31:18.329Z,97.30
2018-11-03T11:33:46.424Z,98.20
2018-11-03T11:36:14.537Z,99.00
2018-11-03T11:38:42.805Z,99.90
2018-11-03T11:41:10.913Z,99.40
2018-11-03T11:43:39.069Z,99.90
2018-11-03T11:46:07.477Z,99.90
2018-11-03T11:48:35.617Z,99.90
2018-11-03T11:51:04.025Z,99.10
2018-11-03T11:53:32.268Z,99.90
2018-11-03T11:56:00.576Z,99.50
2018-11-03T11:58:28.723Z,99.10
2018-11-03T12:00:59.753Z,99.80
2018-11-03T12:03:30.178Z,99.90
2018-11-03T12:05:58.425Z,99.90
2018-11-03T12:08:26.721Z,99.90
2018-11-03T12:10:54.933Z,99.90
2018-11-03T12:13:23.082Z,99.80
2018-11-03T12:15:51.252Z,99.90
2018-11-03T12:18:19.337Z,99.90
2018-11-03T12:20:47.521Z,99.90
2018-11-03T12:23:15.679Z,99.70
2018-11-03T12:25:44.444Z,99.90
2018-11-03T12:28:12.755Z,99.40
2018-11-03T12:30:40.884Z,99.90
2018-11-03T12:33:09.038Z,99.90
2018-11-03T12:35:37.257Z,99.90
2018-11-03T12:38:05.501Z,99.90
2018-11-03T12:40:33.729Z,99.90
2018-11-03T12:43:02.153Z,99.90
2018-11-03T12:45:30.262Z,99.90
2018-11-03T12:47:58.501Z,99.90
2018-11-03T12:50:26.581Z,99.90
2018-11-03T12:52:54.706Z,99.90
2018-11-03T12:55:22.885Z,99.90
2018-11-03T12:57:50.993Z,99.90
2018-11-03T13:00:19.125Z,99.90
2018-11-03T13:02:47.433Z,99.90
2018-11-03T13:05:15.709Z,99.90
2018-11-03T13:07:44.900Z,99.90
2018-11-03T13:10:13.276Z,99.90
2018-11-03T13:12:42.072Z,99.90
2018-11-03T13:15:11.385Z,99.90
2018-11-03T13:17:39.577Z,99.90
2018-11-03T13:20:09.142Z,99.90
2018-11-03T13:22:37.260Z,99.90
2018-11-03T13:25:06.228Z,99.90
2018-11-03T13:27:34.414Z,99.90
2018-11-03T13:30:02.626Z,99.90
2018-11-03T13:32:30.790Z,99.90
2018-11-03T13:34:59.010Z,99.90
2018-11-03T13:37:27.037Z,99.90
2018-11-03T13:39:55.290Z,99.90
2018-11-03T13:42:23.432Z,99.90
2018-11-03T13:44:51.577Z,99.90
2018-11-03T13:47:19.819Z,99.90
2018-11-03T13:49:47.858Z,99.90
2018-11-03T13:52:16.003Z,99.90
2018-11-03T13:54:44.194Z,99.90
2018-11-03T13:57:12.497Z,99.90
2018-11-03T13:59:40.496Z,99.90
2018-11-03T14:02:08.797Z,99.90
2018-11-03T14:04:36.993Z,99.90
2018-11-03T14:07:05.225Z,99.90
2018-11-03T14:09:33.504Z,99.90
2018-11-03T14:12:01.729Z,99.90
2018-11-03T14:14:29.846Z,99.90
2018-11-03T14:16:58.133Z,99.90
2018-11-03T14:19:26.240Z,99.90
2018-11-03T14:21:54.352Z,99.90
2018-11-03T14:24:22.466Z,99.90
2018-11-03T14:26:50.656Z,99.90
2018-11-03T14:29:18.789Z,99.90
2018-11-03T14:31:46.990Z,99.90
2018-11-03T14:34:15.114Z,99.90
2018-11-03T14:37:46.465Z,99.90
2018-11-03T14:40:15.936Z,99.90
2018-11-03T14:42:44.713Z,99.90
2018-11-03T14:45:14.033Z,99.90
2018-11-03T14:47:42.263Z,99.90
2018-11-03T14:50:10.861Z,99.90
2018-11-03T14:52:40.237Z,99.90
2018-11-03T14:55:09.209Z,99.90
2018-11-03T14:57:37.590Z,99.90
2018-11-03T15:00:09.634Z,99.90
2018-11-03T15:02:37.855Z,99.90
2018-11-03T15:05:06.722Z,99.90
2018-11-03T15:07:35.252Z,99.90
2018-11-03T15:10:03.785Z,99.90
2018-11-03T15:12:31.984Z,99.90
2018-11-03T15:15:00.189Z,99.90
2018-11-03T15:17:28.305Z,99.90
2018-11-03T15:19:56.477Z,99.90
2018-11-03T15:22:24.836Z,99.90
2018-11-03T15:24:52.873Z,99.90
2018-11-03T15:27:20.970Z,99.90
2018-11-03T15:29:49.170Z,99.90
2018-11-03T15:32:17.408Z,99.90
2018-11-03T15:34:45.526Z,99.90
2018-11-03T15:37:13.681Z,99.90
2018-11-03T15:39:41.788Z,99.90
2018-11-03T15:42:09.985Z,99.90
2018-11-03T15:44:38.580Z,99.90
2018-11-03T15:47:06.734Z,99.90
2018-11-03T15:49:34.885Z,99.90
2018-11-03T15:52:03.014Z,99.90
2018-11-03T15:54:31.104Z,99.90
2018-11-03T15:56:59.212Z,99.90
2018-11-03T15:59:27.321Z,99.90
2018-11-03T16:01:55.653Z,99.90
2018-11-03T16:04:23.821Z,99.90
2018-11-03T16:06:51.985Z,99.90
2018-11-03T16:09:20.109Z,99.90
2018-11-03T16:11:48.236Z,99.90
2018-11-03T16:14:16.385Z,99.90
2018-11-03T16:16:44.493Z,99.90
2018-11-03T16:19:12.841Z,99.90
2018-11-03T16:21:40.909Z,99.90
2018-11-03T16:24:09.030Z,99.90
2018-11-03T16:26:37.161Z,99.90
2018-11-03T16:29:05.356Z,99.90
2018-11-03T16:31:33.454Z,99.90
2018-11-03T16:34:01.702Z,99.90
2018-11-03T16:36:29.818Z,99.90
2018-11-03T16:38:57.920Z,99.90
2018-11-03T16:41:26.020Z,99.90
2018-11-03T16:43:54.380Z,99.90
2018-11-03T16:46:22.441Z,99.90
2018-11-03T16:48:50.804Z,99.90
2018-11-03T16:51:18.907Z,99.90
2018-11-03T16:53:47.026Z,99.90
2018-11-03T16:56:15.133Z,99.90
2018-11-03T16:58:43.392Z,99.90
2018-11-03T17:01:11.406Z,99.90
2018-11-03T17:03:39.566Z,99.90
2018-11-03T17:06:07.665Z,99.90
2018-11-03T17:08:35.782Z,99.90
2018-11-03T17:11:03.935Z,99.90
2018-11-03T17:13:32.148Z,99.90
2018-11-03T17:16:00.245Z,99.90
2018-11-03T17:18:28.357Z,99.90
2018-11-03T17:20:56.460Z,99.90
2018-11-03T17:23:24.676Z,99.90
2018-11-03T17:25:52.733Z,99.90
2018-11-03T17:28:20.844Z,99.90
2018-11-03T17:30:48.940Z,99.90
2018-11-03T17:33:17.086Z,99.90
2018-11-03T17:35:45.192Z,99.90
2018-11-03T17:38:13.308Z,99.90
2018-11-03T17:40:41.416Z,99.90
2018-11-03T17:43:09.593Z,99.90
2018-11-03T17:45:37.681Z,99.90
2018-11-03T17:48:05.790Z,99.90
2018-11-03T17:50:33.929Z,99.90
2018-11-03T17:53:02.034Z,99.90
2018-11-03T17:55:30.153Z,99.90
2018-11-03T17:57:58.258Z,99.90
2018-11-03T18:00:26.558Z,99.90
2018-11-03T18:02:54.453Z,99.90
2018-11-03T18:05:22.540Z,99.90
2018-11-03T18:07:50.688Z,99.90
2018-11-03T18:10:18.816Z,99.90
2018-11-03T18:12:46.916Z,99.90
2018-11-03T18:15:15.035Z,99.90
2018-11-03T18:17:43.327Z,99.90
2018-11-03T18:20:11.864Z,99.90
2018-11-03T18:22:40.261Z,99.90
2018-11-03T18:25:08.621Z,99.90
2018-11-03T18:27:36.753Z,99.90
2018-11-03T18:30:05.790Z,99.90
2018-11-03T18:32:33.893Z,99.90
2018-11-03T18:35:02.029Z,99.90
2018-11-03T18:37:30.112Z,99.90
2018-11-03T18:39:58.265Z,99.90
2018-11-03T18:42:26.465Z,99.90
2018-11-03T18:44:54.586Z,99.90
2018-11-03T18:47:22.695Z,99.90
2018-11-03T18:49:50.807Z,99.90
2018-11-03T18:52:18.933Z,99.90
2018-11-03T18:54:47.041Z,99.90
2018-11-03T18:57:15.329Z,99.90
2018-11-03T18:59:45.494Z,99.90
2018-11-03T19:02:15.457Z,99.90
2018-11-03T19:04:43.531Z,99.90
2018-11-03T19:07:11.665Z,99.90
2018-11-03T19:09:39.828Z,99.90
2018-11-03T19:12:08.185Z,99.90
2018-11-03T19:14:36.363Z,99.90
2018-11-03T19:17:04.941Z,99.90
2018-11-03T19:19:33.084Z,99.90
2018-11-03T19:22:01.326Z,99.90
2018-11-03T19:24:30.232Z,99.90
2018-11-03T19:26:58.341Z,99.90
2018-11-03T19:29:26.490Z,99.90
2018-11-03T19:31:54.626Z,99.90
2018-11-03T19:34:22.761Z,99.90
2018-11-03T19:36:50.921Z,99.90
2018-11-03T19:39:19.061Z,99.90
2018-11-03T19:41:47.305Z,99.90
2018-11-03T19:44:16.357Z,99.90
2018-11-03T19:46:44.552Z,99.90
2018-11-03T19:49:12.629Z,99.90
2018-11-03T19:51:40.825Z,99.90
2018-11-03T19:54:08.916Z,99.90
2018-11-03T19:56:37.044Z,99.90
2018-11-03T19:59:05.221Z,99.90
2018-11-03T20:01:33.367Z,99.90
2018-11-03T20:04:01.453Z,99.90
2018-11-03T20:06:29.561Z,99.90
2018-11-03T20:08:57.688Z,99.90
2018-11-03T20:11:25.797Z,99.90
2018-11-03T20:13:53.978Z,99.90
2018-11-03T20:16:22.164Z,99.90
2018-11-03T20:18:50.293Z,99.90
2018-11-03T20:21:18.485Z,99.90
2018-11-03T20:23:46.611Z,99.90
2018-11-03T20:26:14.779Z,99.90
2018-11-03T20:28:42.809Z,99.90
2018-11-03T20:31:11.005Z,99.90
2018-11-03T20:33:39.133Z,99.90
2018-11-03T20:36:07.277Z,99.90
2018-11-03T20:38:35.404Z,99.90
2018-11-03T20:41:03.534Z,99.90
2018-11-03T20:43:31.714Z,99.90
2018-11-03T20:45:59.966Z,99.90
2018-11-03T20:48:28.151Z,99.90
2018-11-03T20:51:01.793Z,99.90
2018-11-03T20:53:29.882Z,99.90
2018-11-03T20:55:58.069Z,99.90
2018-11-03T20:58:26.246Z,99.90
2018-11-03T21:00:54.409Z,99.90
2018-11-03T21:03:22.577Z,99.90
2018-11-03T21:05:50.682Z,99.90
2018-11-03T21:08:18.997Z,99.90
2018-11-03T21:10:47.089Z,99.90
2018-11-03T21:13:15.248Z,99.90
2018-11-03T21:15:43.448Z,99.90
2018-11-03T21:18:11.569Z,99.90
2018-11-03T21:20:39.723Z,99.90
2018-11-03T21:23:08.071Z,99.90
2018-11-03T21:25:36.545Z,99.90
2018-11-03T21:28:04.641Z,99.90
2018-11-03T21:30:32.752Z,99.90
2018-11-03T21:33:01.088Z,99.90
2018-11-03T21:35:29.070Z,99.90
2018-11-03T21:37:57.245Z,99.90
2018-11-03T21:40:25.393Z,99.90
2018-11-03T21:42:53.569Z,99.90
2018-11-03T21:45:21.746Z,99.90
2018-11-03T21:47:49.915Z,99.90
2018-11-03T21:50:18.061Z,99.90
2018-11-03T21:52:46.265Z,99.90
2018-11-03T21:55:14.390Z,99.90
2018-11-03T21:57:42.617Z,99.90
2018-11-03T22:00:11.603Z,99.90
2018-11-03T22:02:39.986Z,99.90
2018-11-03T22:05:09.674Z,99.90
2018-11-03T22:07:37.810Z,99.90
2018-11-03T22:10:06.361Z,99.90
2018-11-03T22:12:34.521Z,99.90
2018-11-03T22:15:02.645Z,99.90
2018-11-03T22:17:30.769Z,99.90
2018-11-03T22:19:58.956Z,99.90
2018-11-03T22:22:27.091Z,99.90
2018-11-03T22:24:55.249Z,99.90
2018-11-03T22:27:23.388Z,99.90
2018-11-03T22:29:51.530Z,99.90
2018-11-03T22:32:19.673Z,99.90
2018-11-03T22:34:47.853Z,99.90
2018-11-03T22:37:15.985Z,99.90
2018-11-03T22:39:44.192Z,99.90
2018-11-03T22:42:12.362Z,99.90
2018-11-03T22:44:40.417Z,99.90
2018-11-03T22:47:08.545Z,99.90
2018-11-03T22:49:36.753Z,99.90
2018-11-03T22:52:06.617Z,99.90
2018-11-03T22:54:35.353Z,99.90
2018-11-03T22:57:03.551Z,99.90
2018-11-03T22:59:31.648Z,99.90
2018-11-03T23:01:59.802Z,99.90
2018-11-03T23:04:28.005Z,99.90
2018-11-03T23:06:56.228Z,99.90
2018-11-03T23:09:24.441Z,99.90
2018-11-03T23:11:52.574Z,99.90
2018-11-03T23:14:20.783Z,99.90
2018-11-03T23:19:28.432Z,99.90
2018-11-03T23:21:56.580Z,99.90
2018-11-03T23:24:24.713Z,99.90
2018-11-03T23:26:52.853Z,99.90
2018-11-03T23:29:21.005Z,99.90
2018-11-03T23:31:49.066Z,99.90
2018-11-03T23:34:17.201Z,99.90
2018-11-03T23:36:45.494Z,99.90
2018-11-03T23:39:13.689Z,99.90
2018-11-03T23:41:41.945Z,99.90
2018-11-03T23:44:10.329Z,99.90
2018-11-03T23:46:38.876Z,99.90
2018-11-03T23:49:07.253Z,99.90
2018-11-03T23:51:35.486Z,99.90
2018-11-03T23:54:03.629Z,99.90
2018-11-03T23:56:31.945Z,99.90
2018-11-03T23:59:00.062Z,99.90
